Time;durP1;ratioP1;P1;durP2;ratioP2;P2;SDS_P1;SDS_P2;PMS_P1;PMS_P2;Temp;Humidity;BMP_temperature;BMP_pressure;BME280_temperature;BME280_humidity;BME280_pressure;Samples;Min_cycle;Max_cycle;Signal;HPM_P1;HPM_P2
2023/11/09 00:01:14;;;;;;;2.90;2.30;;;;;;;17.03;53.50;101305.70;106751;1262;22534;-52
2023/11/09 00:03:42;;;;;;;3.20;2.60;;;;;;;17.02;53.54;101308.73;106765;1256;25233;-51
2023/11/09 00:06:10;;;;;;;3.40;2.80;;;;;;;16.98;53.35;101312.22;106860;1265;24818;-51
2023/11/09 00:08:42;;;;;;;3.30;2.70;;;;;;;16.89;53.58;101315.01;106747;1263;22530;-51
2023/11/09 00:11:10;;;;;;;4.00;2.80;;;;;;;16.83;53.85;101322.11;106790;1258;22633;-51
2023/11/09 00:13:38;;;;;;;3.50;2.90;;;;;;;16.79;54.10;101322.94;106714;1261;22537;-52
2023/11/09 00:16:06;;;;;;;3.70;2.90;;;;;;;16.80;54.25;101324.68;106899;1255;22659;-52
2023/11/09 00:18:34;;;;;;;4.20;2.60;;;;;;;16.77;54.14;101325.48;106780;1258;22993;-51
2023/11/09 00:21:02;;;;;;;3.50;2.40;;;;;;;16.73;54.29;101324.27;106952;1259;22868;-51
2023/11/09 00:23:31;;;;;;;2.70;2.50;;;;;;;16.69;54.33;101321.25;107009;1253;24257;-51
2023/11/09 00:26:00;;;;;;;3.30;3.00;;;;;;;16.62;54.50;101311.70;106844;1256;23150;-51
2023/11/09 00:28:29;;;;;;;3.80;3.10;;;;;;;16.54;54.52;101307.10;106992;1257;25289;-52
2023/11/09 00:30:57;;;;;;;2.60;2.40;;;;;;;16.47;54.95;101304.52;106852;1257;25338;-51
2023/11/09 00:33:25;;;;;;;4.20;2.60;;;;;;;16.51;54.85;101302.64;106993;1257;22533;-51
2023/11/09 00:35:54;;;;;;;3.10;2.60;;;;;;;16.48;54.74;101304.33;106665;1262;22549;-51
2023/11/09 00:38:21;;;;;;;3.20;2.70;;;;;;;16.40;54.80;101307.60;107097;1259;23905;-51
2023/11/09 00:40:51;;;;;;;3.70;2.70;;;;;;;16.31;55.00;101304.60;106856;1261;22631;-51
2023/11/09 00:43:19;;;;;;;2.90;2.60;;;;;;;16.21;55.25;101311.79;106882;1259;22530;-51
2023/11/09 00:45:47;;;;;;;2.50;2.30;;;;;;;16.15;55.48;101317.61;106907;1257;22543;-51
2023/11/09 00:48:14;;;;;;;3.50;2.90;;;;;;;16.10;55.69;101324.80;106895;1266;25523;-51
2023/11/09 00:50:42;;;;;;;3.60;2.70;;;;;;;16.04;55.99;101324.47;106952;1263;22519;-52
2023/11/09 00:53:10;;;;;;;3.40;2.70;;;;;;;16.00;56.51;101330.73;106729;1261;22530;-51
2023/11/09 00:55:38;;;;;;;2.80;2.60;;;;;;;16.03;56.52;101335.35;106943;1258;22543;-51
2023/11/09 00:58:06;;;;;;;2.70;2.20;;;;;;;16.06;56.22;101341.04;106959;1258;22542;-51
2023/11/09 01:00:34;;;;;;;2.70;2.40;;;;;;;16.05;56.20;101346.48;107175;1256;24273;-50
2023/11/09 01:03:02;;;;;;;2.30;2.00;;;;;;;16.06;56.03;101352.41;106930;1267;22517;-51
2023/11/09 01:05:30;;;;;;;3.30;2.20;;;;;;;16.05;55.96;101355.08;106999;1263;22527;-51
2023/11/09 01:07:58;;;;;;;3.30;2.30;;;;;;;16.00;55.85;101350.31;107055;1256;25354;-51
2023/11/09 01:10:26;;;;;;;4.60;2.20;;;;;;;15.93;55.99;101351.48;107057;1259;24208;-51
2023/11/09 01:12:54;;;;;;;3.70;2.40;;;;;;;15.94;56.01;101349.14;107068;1258;24236;-51
2023/11/09 01:15:21;;;;;;;3.20;2.40;;;;;;;15.92;56.22;101349.03;106870;1258;25234;-51
2023/11/09 01:18:00;;;;;;;5.50;2.60;;;;;;;15.90;56.34;101351.55;106829;1257;22530;-51
2023/11/09 01:20:29;;;;;;;3.50;2.80;;;;;;;15.88;56.27;101359.17;106929;1259;25356;-54
2023/11/09 01:22:57;;;;;;;2.80;2.20;;;;;;;15.86;56.50;101354.52;106475;1256;22564;-50
2023/11/09 01:25:25;;;;;;;3.90;2.60;;;;;;;15.84;56.44;101356.85;106615;1258;22984;-52
2023/11/09 01:27:53;;;;;;;2.90;2.60;;;;;;;15.78;56.46;101361.60;106522;1260;22545;-52
2023/11/09 01:30:21;;;;;;;4.60;2.40;;;;;;;15.76;56.58;101365.52;106489;1260;25311;-52
2023/11/09 01:32:50;;;;;;;5.00;2.40;;;;;;;15.72;56.58;101375.45;106414;1261;22616;-51
2023/11/09 01:35:19;;;;;;;4.90;2.80;;;;;;;15.68;56.55;101384.86;106440;1259;22532;-53
2023/11/09 01:37:46;;;;;;;3.70;2.80;;;;;;;15.68;56.74;101387.83;106731;1264;22537;-53
2023/11/09 01:40:14;;;;;;;2.70;2.50;;;;;;;15.70;56.61;101396.53;106346;1270;22537;-52
2023/11/09 01:42:42;;;;;;;2.60;2.40;;;;;;;15.69;56.61;101401.26;106461;1258;24207;-53
2023/11/09 01:45:10;;;;;;;2.80;2.40;;;;;;;15.71;56.75;101399.27;106480;1258;24270;-52
2023/11/09 01:47:38;;;;;;;3.00;2.20;;;;;;;15.68;56.70;101403.22;106454;1264;22552;-53
2023/11/09 01:50:06;;;;;;;3.10;2.40;;;;;;;15.67;56.69;101399.39;106555;1259;22542;-52
2023/11/09 01:52:34;;;;;;;3.90;2.80;;;;;;;15.74;56.55;101399.35;106353;1274;22531;-52
2023/11/09 01:55:04;;;;;;;2.80;2.20;;;;;;;15.77;56.45;101394.54;106474;1260;24286;-52
2023/11/09 01:57:32;;;;;;;3.90;2.50;;;;;;;15.78;56.27;101397.64;106703;1258;22535;-53
2023/11/09 02:00:00;;;;;;;3.70;2.80;;;;;;;15.77;56.30;101400.13;106410;1265;25317;-52
2023/11/09 02:02:28;;;;;;;6.30;2.80;;;;;;;15.78;56.20;101400.63;106423;1263;24273;-52
2023/11/09 02:04:56;;;;;;;3.60;2.40;;;;;;;15.75;56.00;101400.55;106422;1274;25407;-52
2023/11/09 02:07:24;;;;;;;2.60;2.30;;;;;;;15.68;56.30;101407.77;106328;1267;22523;-52
2023/11/09 02:09:52;;;;;;;3.70;2.70;;;;;;;15.62;56.34;101409.72;106257;1281;22546;-52
2023/11/09 02:12:20;;;;;;;4.60;2.50;;;;;;;15.63;56.34;101417.02;106355;1263;22540;-52
2023/11/09 02:14:48;;;;;;;2.70;2.40;;;;;;;15.65;56.33;101420.63;106403;1272;22576;-52
2023/11/09 02:17:16;;;;;;;3.90;2.80;;;;;;;15.67;56.36;101433.67;106368;1264;22539;-52
2023/11/09 02:19:45;;;;;;;4.10;2.80;;;;;;;15.70;56.36;101439.91;106675;1263;25445;-52
2023/11/09 02:22:13;;;;;;;2.80;2.50;;;;;;;15.69;56.40;101451.98;106804;1261;25382;-52
2023/11/09 02:24:43;;;;;;;3.30;3.00;;;;;;;15.69;56.28;101460.89;106623;1262;22535;-52
2023/11/09 02:27:11;;;;;;;5.30;2.50;;;;;;;15.71;56.36;101468.89;106666;1261;22548;-52
2023/11/09 02:29:41;;;;;;;3.70;2.90;;;;;;;15.72;56.36;101469.02;106412;1272;22640;-52
2023/11/09 02:32:09;;;;;;;4.30;2.60;;;;;;;15.72;56.20;101474.30;106723;1262;25274;-52
2023/11/09 02:34:37;;;;;;;3.20;2.80;;;;;;;15.68;56.01;101477.91;106623;1270;22529;-52
2023/11/09 02:37:06;;;;;;;4.70;3.00;;;;;;;15.67;55.91;101484.77;106879;1270;25353;-52
2023/11/09 02:39:34;;;;;;;4.40;3.20;;;;;;;15.64;56.02;101492.36;107004;1257;23015;-52
2023/11/09 02:42:02;;;;;;;4.00;2.60;;;;;;;15.62;56.14;101495.05;106816;1269;22539;-52
2023/11/09 02:44:30;;;;;;;5.80;2.90;;;;;;;15.64;56.07;101501.30;106853;1268;22535;-52
2023/11/09 02:46:58;;;;;;;3.70;2.90;;;;;;;15.64;55.84;101507.41;106785;1275;22520;-52
2023/11/09 02:49:25;;;;;;;4.40;3.20;;;;;;;15.58;55.90;101511.79;106936;1266;22541;-52
2023/11/09 02:51:54;;;;;;;4.00;3.00;;;;;;;15.57;56.15;101513.73;107081;1266;22529;-52
2023/11/09 02:54:22;;;;;;;4.00;3.60;;;;;;;15.55;56.07;101515.55;106929;1266;22533;-52
2023/11/09 02:56:49;;;;;;;4.20;3.20;;;;;;;15.50;56.12;101520.26;106925;1263;22537;-52
2023/11/09 02:59:17;;;;;;;5.80;3.30;;;;;;;15.47;56.32;101524.39;106858;1271;22534;-52
2023/11/09 03:01:45;;;;;;;4.30;3.60;;;;;;;15.45;56.21;101529.50;106944;1260;22538;-52
2023/11/09 03:04:15;;;;;;;4.70;3.60;;;;;;;15.53;55.76;101530.14;106841;1268;22540;-52
2023/11/09 03:06:42;;;;;;;3.70;3.00;;;;;;;15.50;55.98;101526.02;106799;1267;22633;-53
2023/11/09 03:09:12;;;;;;;4.60;3.50;;;;;;;15.53;56.15;101520.18;106093;1267;1003840;-52
2023/11/09 03:11:40;;;;;;;4.80;3.30;;;;;;;15.55;56.28;101525.16;106328;1256;1002900;-52
2023/11/09 03:14:08;;;;;;;4.60;3.50;;;;;;;15.59;56.12;101530.12;106900;1268;22530;-52
2023/11/09 03:16:35;;;;;;;3.30;3.00;;;;;;;15.65;55.93;101533.27;106924;1268;25345;-53
2023/11/09 03:19:03;;;;;;;4.00;3.20;;;;;;;15.72;55.63;101533.59;106716;1261;25564;-52
2023/11/09 03:21:31;;;;;;;4.80;3.60;;;;;;;15.75;55.30;101532.60;106856;1261;23163;-52
2023/11/09 03:23:59;;;;;;;3.40;3.10;;;;;;;15.78;55.00;101537.23;106882;1270;25325;-52
2023/11/09 03:26:27;;;;;;;4.50;3.50;;;;;;;15.74;54.93;101547.18;106933;1265;22534;-52
2023/11/09 03:28:56;;;;;;;4.70;3.40;;;;;;;15.66;55.03;101550.02;107020;1255;22887;-52
2023/11/09 03:31:24;;;;;;;7.60;3.80;;;;;;;15.67;55.06;101550.17;106873;1256;22539;-52
2023/11/09 03:33:52;;;;;;;4.10;3.30;;;;;;;15.68;54.94;101548.92;106984;1267;22530;-52
2023/11/09 03:36:20;;;;;;;5.10;3.70;;;;;;;15.63;54.74;101554.31;106973;1268;22533;-52
2023/11/09 03:38:48;;;;;;;4.80;3.90;;;;;;;15.58;54.86;101562.35;106950;1256;22533;-52
2023/11/09 03:41:16;;;;;;;4.90;3.90;;;;;;;15.56;54.76;101559.94;106825;1268;22509;-52
2023/11/09 03:43:44;;;;;;;4.90;3.60;;;;;;;15.54;54.93;101561.23;106890;1262;22635;-52
2023/11/09 03:46:13;;;;;;;4.20;3.80;;;;;;;15.53;54.80;101566.17;106823;1267;24773;-52
2023/11/09 03:48:41;;;;;;;6.40;4.30;;;;;;;15.53;54.82;101564.95;106713;1266;22540;-52
2023/11/09 03:51:08;;;;;;;6.10;4.20;;;;;;;15.52;54.81;101567.09;106695;1259;22526;-52
2023/11/09 03:53:36;;;;;;;5.20;3.90;;;;;;;15.53;54.97;101577.03;106754;1267;22534;-52
2023/11/09 03:56:04;;;;;;;4.00;3.60;;;;;;;15.57;54.95;101582.48;106816;1273;22535;-52
2023/11/09 03:58:33;;;;;;;4.70;3.90;;;;;;;15.63;54.81;101584.41;107007;1257;22589;-52
2023/11/09 04:01:01;;;;;;;4.90;4.30;;;;;;;15.66;54.76;101579.25;106772;1263;23893;-52
2023/11/09 04:03:29;;;;;;;4.90;4.00;;;;;;;15.69;54.70;101581.09;106975;1270;22517;-52
2023/11/09 04:05:57;;;;;;;4.90;3.70;;;;;;;15.73;54.62;101577.29;106927;1266;22556;-52
2023/11/09 04:08:25;;;;;;;5.10;4.40;;;;;;;15.75;54.39;101579.84;106852;1263;25274;-52
2023/11/09 04:10:53;;;;;;;4.80;4.10;;;;;;;15.73;54.26;101579.02;106825;1275;22612;-53
2023/11/09 04:13:21;;;;;;;5.70;3.90;;;;;;;15.73;54.29;101582.70;106962;1262;22569;-51
2023/11/09 04:15:49;;;;;;;5.20;4.30;;;;;;;15.71;54.03;101591.50;107097;1258;22532;-52
2023/11/09 04:18:16;;;;;;;4.30;3.90;;;;;;;15.71;54.12;101590.83;106674;1267;22633;-52
2023/11/09 04:20:44;;;;;;;4.50;4.10;;;;;;;15.70;54.09;101599.79;106657;1261;22619;-52
2023/11/09 04:23:12;;;;;;;4.50;3.80;;;;;;;15.68;54.32;101597.38;106852;1254;22605;-52
2023/11/09 04:25:40;;;;;;;6.60;4.50;;;;;;;15.67;54.18;101596.17;106776;1262;22529;-52
2023/11/09 04:28:08;;;;;;;4.70;4.10;;;;;;;15.67;54.11;101601.59;106547;1264;22526;-52
2023/11/09 04:30:36;;;;;;;4.80;4.30;;;;;;;15.69;54.00;101604.71;106848;1257;24202;-51
2023/11/09 04:33:09;;;;;;;5.40;4.40;;;;;;;15.67;53.91;101608.25;106579;1256;25477;-52
2023/11/09 04:35:37;;;;;;;5.40;3.90;;;;;;;15.65;53.83;101610.73;106525;1269;22621;-50
2023/11/09 04:38:05;;;;;;;4.90;4.10;;;;;;;15.63;53.84;101613.27;106728;1256;23566;-52
2023/11/09 04:40:33;;;;;;;5.10;4.50;;;;;;;15.61;53.86;101618.55;106798;1255;22547;-52
2023/11/09 04:43:01;;;;;;;8.60;4.30;;;;;;;15.61;53.94;101619.45;106696;1267;22531;-53
2023/11/09 04:45:29;;;;;;;6.10;4.10;;;;;;;15.62;53.84;101620.65;106685;1257;22523;-52
2023/11/09 04:47:58;;;;;;;5.90;4.20;;;;;;;15.63;53.87;101623.23;106621;1258;24272;-52
2023/11/09 04:50:30;;;;;;;4.90;4.10;;;;;;;15.62;53.86;101625.70;106629;1257;22529;-52
2023/11/09 04:53:19;;;;;;;4.70;4.10;;;;;;;15.61;53.77;101626.79;106555;1254;22647;-52
2023/11/09 04:55:53;;;;;;;5.40;3.90;;;;;;;15.60;53.79;101633.11;106608;1254;22619;-53
2023/11/09 05:06:52;;;;;;;5.70;4.80;;;;;;;15.56;53.97;101648.09;106404;1264;22554;-52
2023/11/09 05:09:21;;;;;;;5.00;4.50;;;;;;;15.54;54.24;101652.52;106756;1269;22530;-52
2023/11/09 05:11:49;;;;;;;5.20;4.70;;;;;;;15.51;54.25;101657.51;106860;1256;22539;-52
2023/11/09 05:14:17;;;;;;;6.60;5.00;;;;;;;15.46;54.24;101665.17;106761;1257;24235;-50
2023/11/09 05:16:45;;;;;;;6.90;5.50;;;;;;;15.37;54.40;101666.77;106830;1261;22553;-53
2023/11/09 05:19:13;;;;;;;7.70;5.60;;;;;;;15.26;54.62;101669.87;106753;1257;22537;-52
2023/11/09 05:21:41;;;;;;;5.70;5.20;;;;;;;15.15;54.88;101673.47;106683;1270;22537;-52
2023/11/09 05:24:09;;;;;;;6.20;5.60;;;;;;;15.09;55.22;101679.94;106765;1260;24206;-52
2023/11/09 05:26:36;;;;;;;9.30;6.00;;;;;;;15.02;55.35;101677.84;106708;1268;22537;-52
2023/11/09 05:29:05;;;;;;;6.90;5.50;;;;;;;14.97;55.32;101688.29;106639;1260;25346;-51
2023/11/09 05:31:35;;;;;;;5.90;5.30;;;;;;;14.90;55.48;101690.04;106720;1257;22757;-52
2023/11/09 05:34:04;;;;;;;6.90;5.90;;;;;;;14.88;55.52;101694.30;106743;1257;25544;-52
2023/11/09 05:36:34;;;;;;;6.40;5.60;;;;;;;14.84;55.66;101700.13;106799;1260;22563;-52
2023/11/09 05:39:05;;;;;;;8.40;5.60;;;;;;;14.83;55.80;101705.40;106654;1273;22529;-52
2023/11/09 05:41:33;;;;;;;8.20;6.20;;;;;;;14.82;56.03;101713.11;106859;1259;22537;-52
2023/11/09 05:44:01;;;;;;;8.00;5.30;;;;;;;14.85;56.12;101716.55;106796;1257;25284;-53
2023/11/09 05:46:30;;;;;;;6.00;5.40;;;;;;;14.91;56.02;101720.06;106726;1264;22558;-50
2023/11/09 05:48:58;;;;;;;6.20;5.30;;;;;;;14.97;55.74;101726.89;106711;1258;22634;-52
2023/11/09 05:51:28;;;;;;;7.70;6.00;;;;;;;15.00;55.66;101729.80;106863;1268;22532;-53
2023/11/09 05:53:57;;;;;;;7.30;6.20;;;;;;;15.03;55.65;101736.54;106679;1262;22531;-52
2023/11/09 05:56:27;;;;;;;9.50;6.20;;;;;;;15.09;55.45;101739.16;106956;1258;22557;-52
2023/11/09 05:58:55;;;;;;;9.30;6.20;;;;;;;15.12;55.21;101741.71;106703;1260;24226;-52
2023/11/09 06:01:24;;;;;;;6.70;5.80;;;;;;;15.11;55.22;101746.11;106599;1264;22529;-52
2023/11/09 06:03:54;;;;;;;6.00;5.40;;;;;;;15.12;55.31;101750.30;106794;1257;22533;-52
2023/11/09 06:06:22;;;;;;;7.90;6.20;;;;;;;15.16;55.39;101750.70;106839;1260;22546;-52
2023/11/09 06:08:50;;;;;;;8.00;7.20;;;;;;;15.22;55.26;101752.83;106010;1259;1002957;-52
2023/11/09 06:11:17;;;;;;;8.70;7.10;;;;;;;15.30;54.93;101760.48;106648;1257;24702;-52
2023/11/09 06:13:45;;;;;;;8.70;6.80;;;;;;;15.34;54.74;101764.59;106807;1261;22523;-52
2023/11/09 06:16:14;;;;;;;7.80;6.30;;;;;;;15.34;54.72;101762.66;106816;1266;26524;-52
2023/11/09 06:18:42;;;;;;;7.00;6.00;;;;;;;15.38;54.59;101760.65;106839;1256;23272;-52
2023/11/09 06:21:10;;;;;;;10.70;6.80;;;;;;;15.41;54.52;101760.73;106639;1258;25276;-52
2023/11/09 06:23:38;;;;;;;9.70;7.70;;;;;;;15.43;54.38;101761.59;106710;1254;24265;-52
2023/11/09 06:26:06;;;;;;;10.60;8.60;;;;;;;15.43;54.36;101761.59;106757;1258;22529;-52
2023/11/09 06:28:34;;;;;;;8.50;7.60;;;;;;;15.37;54.23;101762.06;106675;1259;22622;-52
2023/11/09 06:31:06;;;;;;;10.50;8.50;;;;;;;15.28;54.32;101765.42;106763;1254;22536;-52
2023/11/09 06:33:35;;;;;;;9.60;8.20;;;;;;;15.23;54.64;101771.52;106819;1253;22546;-52
2023/11/09 06:36:05;;;;;;;10.50;8.30;;;;;;;15.20;54.82;101772.98;106683;1254;22575;-52
2023/11/09 06:38:33;;;;;;;10.60;8.70;;;;;;;15.16;55.00;101774.64;106874;1260;25353;-52
2023/11/09 06:41:02;;;;;;;11.40;10.20;;;;;;;15.14;55.04;101778.19;106682;1268;22548;-52
2023/11/09 06:43:30;;;;;;;10.90;9.80;;;;;;;15.10;55.01;101780.92;106795;1254;22535;-52
2023/11/09 06:45:58;;;;;;;12.50;10.10;;;;;;;15.06;55.43;101782.41;106770;1264;22557;-52
2023/11/09 06:48:26;;;;;;;10.70;9.50;;;;;;;15.05;55.54;101790.29;106893;1256;25243;-52
2023/11/09 06:50:54;;;;;;;9.30;8.30;;;;;;;15.07;55.62;101791.48;106733;1261;22551;-52
2023/11/09 06:53:22;;;;;;;12.50;9.90;;;;;;;15.08;55.70;101790.22;106020;1257;1003426;-52
2023/11/09 06:55:51;;;;;;;12.70;9.70;;;;;;;15.09;55.55;101794.77;106857;1257;22540;-52
2023/11/09 06:58:19;;;;;;;11.10;9.90;;;;;;;15.11;55.64;101796.26;106822;1254;22543;-53
2023/11/09 07:00:47;;;;;;;10.60;9.40;;;;;;;15.17;55.92;101802.23;106923;1270;22533;-52
2023/11/09 07:03:17;;;;;;;13.00;10.10;;;;;;;15.21;55.95;101801.95;106843;1257;22530;-52
2023/11/09 07:05:46;;;;;;;11.50;10.30;;;;;;;15.23;55.95;101807.34;106660;1264;22552;-53
2023/11/09 07:08:14;;;;;;;11.80;10.20;;;;;;;15.26;55.94;101810.77;106738;1259;22667;-52
2023/11/09 07:10:43;;;;;;;14.20;11.50;;;;;;;15.28;56.10;101816.48;106747;1260;24261;-53
2023/11/09 07:13:11;;;;;;;12.40;10.20;;;;;;;15.29;56.08;101814.88;106875;1257;22543;-52
2023/11/09 07:15:39;;;;;;;12.60;10.40;;;;;;;15.32;55.98;101821.80;106367;1264;22538;-52
2023/11/09 07:18:07;;;;;;;13.80;11.20;;;;;;;15.35;55.94;101824.36;106796;1270;22552;-52
2023/11/09 07:20:36;;;;;;;14.10;11.10;;;;;;;15.38;56.21;101826.38;106736;1260;22526;-52
2023/11/09 07:23:07;;;;;;;13.60;10.70;;;;;;;15.44;56.48;101827.47;106799;1257;22529;-52
2023/11/09 07:25:38;;;;;;;13.80;11.60;;;;;;;15.51;56.20;101830.27;106999;1252;22554;-54
2023/11/09 07:28:08;;;;;;;13.40;11.90;;;;;;;15.56;56.08;101826.15;106693;1257;22043;-53
2023/11/09 07:30:36;;;;;;;13.60;10.40;;;;;;;15.61;55.83;101830.20;106711;1260;22534;-52
2023/11/09 07:33:04;;;;;;;11.70;10.50;;;;;;;15.66;55.75;101829.71;106720;1257;22628;-54
2023/11/09 07:35:34;;;;;;;12.20;10.70;;;;;;;15.71;55.35;101832.74;106901;1257;22526;-52
2023/11/09 07:38:02;;;;;;;14.10;11.10;;;;;;;15.75;55.35;101828.44;107112;1253;22534;-53
2023/11/09 07:40:30;;;;;;;15.20;10.90;;;;;;;15.79;55.29;101832.19;107116;1257;23018;-52
2023/11/09 07:42:58;;;;;;;14.10;11.40;;;;;;;15.83;55.41;101836.27;106822;1254;22601;-52
2023/11/09 07:45:26;;;;;;;14.20;11.30;;;;;;;15.86;55.56;101840.73;106882;1257;22531;-52
2023/11/09 07:47:54;;;;;;;12.90;11.00;;;;;;;15.89;55.36;101845.57;107064;1256;22538;-52
2023/11/09 07:50:23;;;;;;;14.90;10.90;;;;;;;15.90;55.31;101847.46;106828;1253;22551;-52
2023/11/09 07:52:53;;;;;;;12.30;10.30;;;;;;;15.92;55.38;101847.41;106849;1268;22531;-53
2023/11/09 07:55:20;;;;;;;15.30;11.90;;;;;;;15.96;55.06;101848.52;106919;1260;22534;-53
2023/11/09 07:57:51;;;;;;;18.90;12.20;;;;;;;15.97;54.79;101855.65;107054;1258;25517;-52
2023/11/09 08:00:20;;;;;;;13.10;11.00;;;;;;;15.97;54.55;101858.45;106921;1258;22539;-52
2023/11/09 08:02:47;;;;;;;14.00;11.50;;;;;;;16.01;54.59;101862.23;107054;1253;25285;-52
2023/11/09 08:05:16;;;;;;;12.00;10.70;;;;;;;16.23;54.12;101865.27;106930;1257;22539;-52
2023/11/09 08:07:44;;;;;;;12.50;10.30;;;;;;;16.31;54.45;101863.13;106570;1260;22531;-52
2023/11/09 08:10:12;;;;;;;15.50;11.60;;;;;;;16.37;54.23;101866.66;106781;1253;24053;-52
2023/11/09 08:12:40;;;;;;;13.90;11.10;;;;;;;16.41;53.87;101865.50;106756;1268;22545;-52
2023/11/09 08:15:13;;;;;;;11.70;10.30;;;;;;;16.43;53.49;101871.20;106674;1268;24211;-52
2023/11/09 08:17:42;;;;;;;13.30;10.90;;;;;;;16.46;53.40;101872.17;106674;1254;22533;-52
2023/11/09 08:20:13;;;;;;;12.50;10.70;;;;;;;16.49;53.36;101874.39;106604;1254;22529;-52
2023/11/09 08:22:47;;;;;;;13.30;11.00;;;;;;;16.51;53.50;101878.54;106649;1261;22542;-53
2023/11/09 08:25:15;;;;;;;14.00;10.60;;;;;;;16.54;53.33;101879.35;106573;1261;25475;-52
2023/11/09 08:27:44;;;;;;;14.20;10.90;;;;;;;16.56;53.25;101878.92;106597;1255;23866;-50
2023/11/09 08:30:15;;;;;;;12.20;10.60;;;;;;;16.57;52.90;101881.02;106603;1260;23245;-52
2023/11/09 08:32:46;;;;;;;;;;;;;;;16.60;52.65;101885.30;106211;1258;22586;-50
2023/11/09 08:35:16;;;;;;;13.60;10.50;;;;;;;16.62;52.48;101888.58;106355;1270;358683;-53
2023/11/09 08:37:43;;;;;;;14.90;10.70;;;;;;;16.63;52.46;101889.06;106359;1257;22562;-53
2023/11/09 08:40:18;;;;;;;14.50;11.30;;;;;;;16.64;52.13;101888.52;106380;1272;22628;-52
2023/11/09 08:42:48;;;;;;;15.50;11.40;;;;;;;16.59;52.26;101885.33;106488;1258;22539;-52
2023/11/09 08:45:17;;;;;;;14.30;11.00;;;;;;;16.63;52.31;101888.55;106296;1264;22535;-52
2023/11/09 08:47:46;;;;;;;12.70;11.40;;;;;;;16.65;52.60;101888.13;106581;1255;24210;-52
2023/11/09 08:50:16;;;;;;;13.70;11.50;;;;;;;16.69;52.48;101887.13;106578;1270;22543;-52
2023/11/09 08:52:44;;;;;;;15.10;11.00;;;;;;;16.73;52.14;101894.36;106546;1270;22527;-52
2023/11/09 08:55:13;;;;;;;14.30;10.90;;;;;;;16.77;52.01;101900.55;106514;1270;22530;-52
2023/11/09 08:57:41;;;;;;;12.90;10.50;;;;;;;16.79;51.69;101902.78;106506;1255;24216;-52
2023/11/09 09:00:13;;;;;;;12.30;10.90;;;;;;;16.81;51.39;101903.42;106690;1275;25335;-52
2023/11/09 09:02:45;;;;;;;10.60;8.90;;;;;;;16.83;51.65;101904.40;106767;1271;22522;-52
2023/11/09 09:05:15;;;;;;;10.00;8.70;;;;;;;16.88;51.85;101905.50;106883;1255;23914;-53
2023/11/09 09:07:42;;;;;;;11.20;9.00;;;;;;;16.91;51.67;101908.89;106833;1258;25349;-53
2023/11/09 09:10:16;;;;;;;11.80;9.40;;;;;;;16.94;51.37;101908.29;106947;1270;25328;-54
2023/11/09 09:12:44;;;;;;;9.50;8.20;;;;;;;16.94;51.21;101913.73;106774;1257;22543;-51
2023/11/09 09:15:13;;;;;;;11.60;9.00;;;;;;;16.94;51.19;101914.59;106778;1254;24369;-52
2023/11/09 09:17:42;;;;;;;14.00;10.20;;;;;;;16.95;50.86;101916.84;107095;1264;22540;-52
2023/11/09 09:20:15;;;;;;;11.50;9.60;;;;;;;16.96;50.44;101915.08;107168;1257;22538;-52
2023/11/09 09:22:44;;;;;;;11.70;9.50;;;;;;;16.97;50.38;101915.75;106868;1270;22525;-51
2023/11/09 09:25:16;;;;;;;10.40;9.30;;;;;;;16.95;50.27;101913.86;106983;1268;25330;-51
2023/11/09 09:27:48;;;;;;;10.50;8.90;;;;;;;16.75;51.19;101910.09;106833;1257;22576;-51
2023/11/09 09:30:21;;;;;;;12.70;9.80;;;;;;;16.77;51.59;101914.59;107072;1253;22526;-52
2023/11/09 09:32:50;;;;;;;11.20;9.20;;;;;;;16.80;51.47;101914.14;107083;1255;22526;-52
2023/11/09 09:35:24;;;;;;;11.00;9.30;;;;;;;16.83;51.18;101913.88;106876;1254;22628;-52
2023/11/09 09:38:05;;;;;;;9.90;8.80;;;;;;;16.84;51.02;101913.30;106847;1255;22538;-52
2023/11/09 09:40:36;;;;;;;11.20;9.80;;;;;;;16.86;51.08;101912.20;106632;1269;23948;-52
2023/11/09 09:43:19;;;;;;;12.60;9.40;;;;;;;16.84;50.78;101915.08;106851;1268;23867;-53
2023/11/09 09:45:54;;;;;;;11.00;8.70;;;;;;;16.84;50.91;101916.30;106903;1273;23746;-54
2023/11/09 09:48:22;;;;;;;10.80;8.70;;;;;;;16.86;50.77;101921.49;107006;1253;22529;-54
2023/11/09 09:50:52;;;;;;;10.10;8.60;;;;;;;16.89;50.59;101920.54;106686;1267;25406;-54
2023/11/09 09:53:24;;;;;;;9.60;8.30;;;;;;;16.93;50.41;101925.48;106655;1273;23326;-51
2023/11/09 09:55:53;;;;;;;12.60;9.50;;;;;;;16.97;50.21;101923.97;106655;1270;24358;-55
2023/11/09 09:58:21;;;;;;;11.50;9.70;;;;;;;17.03;50.20;101930.98;106727;1269;24408;-54
2023/11/09 10:00:55;;;;;;;10.30;7.70;;;;;;;17.04;49.86;101928.48;106829;1268;22552;-54
2023/11/09 10:03:23;;;;;;;10.00;8.30;;;;;;;17.02;49.27;101929.25;106950;1258;22527;-54
2023/11/09 10:05:51;;;;;;;10.40;8.30;;;;;;;17.01;49.12;101923.85;106902;1256;22533;-54
2023/11/09 10:08:20;;;;;;;11.80;9.40;;;;;;;17.01;48.86;101925.60;106793;1258;22525;-55
2023/11/09 10:10:49;;;;;;;10.40;8.50;;;;;;;17.03;48.79;101924.31;107223;1257;22555;-54
2023/11/09 10:13:20;;;;;;;10.80;8.80;;;;;;;17.05;48.96;101923.73;106852;1262;22549;-54
2023/11/09 10:15:55;;;;;;;10.40;8.40;;;;;;;17.05;48.56;101922.15;107095;1270;22532;-54
2023/11/09 10:18:28;;;;;;;9.70;8.70;;;;;;;17.10;48.48;101922.70;106014;1260;1003113;-54
2023/11/09 10:20:57;;;;;;;11.10;8.90;;;;;;;17.15;48.58;101922.56;107042;1260;22524;-54
2023/11/09 10:23:28;;;;;;;10.30;8.10;;;;;;;17.20;48.96;101930.64;106893;1257;22532;-54
2023/11/09 10:25:57;;;;;;;10.40;8.60;;;;;;;17.24;49.10;101930.69;106494;1259;22620;-55
2023/11/09 10:28:28;;;;;;;9.20;7.60;;;;;;;17.26;48.94;101933.77;106832;1272;24286;-54
2023/11/09 10:30:56;;;;;;;7.70;6.90;;;;;;;17.29;48.45;101934.75;106981;1271;25328;-54
2023/11/09 10:33:26;;;;;;;9.50;7.30;;;;;;;17.29;48.41;101938.77;106742;1259;25328;-55
2023/11/09 10:35:55;;;;;;;7.40;6.10;;;;;;;17.29;47.98;101942.45;106795;1259;22538;-52
2023/11/09 10:38:25;;;;;;;9.50;7.40;;;;;;;17.27;47.38;101944.27;106817;1259;22981;-54
2023/11/09 10:40:54;;;;;;;9.70;7.10;;;;;;;17.27;47.41;101946.72;106545;1260;24332;-54
2023/11/09 10:43:42;;;;;;;11.30;8.30;;;;;;;17.29;47.72;101949.48;106776;1259;25331;-55
2023/11/09 10:46:15;;;;;;;10.30;8.20;;;;;;;17.32;47.86;101956.20;106952;1263;26794;-55
2023/11/09 10:48:44;;;;;;;8.10;7.30;;;;;;;17.34;47.68;101952.83;106782;1263;22536;-54
2023/11/09 10:51:12;;;;;;;7.30;6.50;;;;;;;17.32;47.53;101952.19;106871;1272;22530;-54
2023/11/09 10:53:41;;;;;;;7.50;5.30;;;;;;;17.31;46.95;101959.59;106741;1270;23972;-54
2023/11/09 10:56:13;;;;;;;6.30;4.90;;;;;;;17.29;45.94;101957.02;107079;1270;25437;-54
2023/11/09 10:58:44;;;;;;;6.20;4.50;;;;;;;17.28;45.08;101956.16;107088;1265;22529;-57
2023/11/09 11:01:21;;;;;;;6.90;4.90;;;;;;;17.30;44.94;101959.08;106915;1253;22522;-54
2023/11/09 11:03:54;;;;;;;5.00;4.40;;;;;;;17.34;44.75;101955.64;106929;1269;24305;-54
2023/11/09 11:06:29;;;;;;;4.90;4.10;;;;;;;17.37;44.58;101956.42;107016;1268;24236;-54
2023/11/09 11:09:01;;;;;;;6.20;5.30;;;;;;;17.41;44.40;101962.25;107064;1256;22523;-54
2023/11/09 11:11:30;;;;;;;;;;;;;;;17.42;44.23;101958.19;106827;1268;22518;-54
2023/11/09 11:14:05;;;;;;;5.00;4.40;;;;;;;17.44;44.40;101961.45;106756;1258;22538;-55
2023/11/09 11:16:56;;;;;;;5.60;4.40;;;;;;;17.46;44.46;101958.08;107054;1267;22538;-52
2023/11/09 11:19:39;;;;;;;4.90;3.80;;;;;;;17.46;43.71;101957.54;107158;1269;22589;-53
2023/11/09 11:25:45;;;;;;;5.00;4.00;;;;;;;17.50;42.75;101962.34;104135;1293;545051;-51
2023/11/09 11:28:17;;;;;;;4.90;3.60;;;;;;;17.50;42.85;101968.48;106303;1267;24490;-53
2023/11/09 11:30:45;;;;;;;4.60;4.10;;;;;;;17.53;43.23;101965.23;106817;1282;25389;-53
2023/11/09 11:33:14;;;;;;;6.50;4.10;;;;;;;17.55;43.12;101965.17;106406;1278;22547;-53
2023/11/09 11:35:48;;;;;;;5.30;3.70;;;;;;;17.55;42.80;101965.90;106119;1273;22600;-53